Time;durP1;ratioP1;P1;durP2;ratioP2;P2;SDS_P1;SDS_P2;PMS_P1;PMS_P2;Temp;Humidity;BMP_temperature;BMP_pressure;BME280_temperature;BME280_humidity;BME280_pressure;Samples;Min_cycle;Max_cycle;Signal;HPM_P1;HPM_P2
2022/07/31 00:01:48;;;;;;;;;;;;;;;22.67;39.35;99105.94;2618447;54;20050;-69
2022/07/31 00:04:20;;;;;;;;;;;;;;;22.68;39.03;99107.56;2619332;39;20073;-67
2022/07/31 00:06:49;;;;;;;;;;;;;;;22.61;38.81;99107.78;2622950;39;20334;-68
2022/07/31 00:09:19;;;;;;;;;;;;;;;22.50;39.62;99114.22;2620418;39;20333;-71
2022/07/31 00:12:08;;;;;;;;;;;;;;;22.49;39.17;99110.72;2620627;54;20444;-70
2022/07/31 00:14:38;;;;;;;;;;;;;;;22.48;39.54;99111.78;2620153;54;19953;-68
2022/07/31 00:17:07;;;;;;;;;;;;;;;22.47;39.31;99114.75;2618844;39;20421;-68
2022/07/31 00:19:40;;;;;;;;;;;;;;;22.30;40.13;99106.88;2618919;39;20324;-69
2022/07/31 00:22:11;;;;;;;;;;;;;;;22.15;40.06;99106.78;2618987;39;20353;-68
2022/07/31 00:24:40;;;;;;;;;;;;;;;22.07;40.50;99113.44;2617783;47;19962;-68
2022/07/31 00:27:10;;;;;;;;;;;;;;;22.01;40.95;99104.53;2618318;54;19987;-68
2022/07/31 00:29:39;;;;;;;;;;;;;;;21.98;41.09;99109.59;2618131;39;20325;-68
2022/07/31 00:32:10;;;;;;;;;;;;;;;21.95;41.07;99108.22;2618446;54;19946;-68
2022/07/31 00:34:42;;;;;;;;;;;;;;;21.98;41.04;99106.91;2617627;54;19939;-68
2022/07/31 00:37:11;;;;;;;;;;;;;;;21.93;40.93;99104.19;2617311;54;19939;-67
2022/07/31 00:39:41;;;;;;;;;;;;;;;21.84;41.30;99109.25;2618416;54;19962;-68
2022/07/31 00:42:18;;;;;;;;;;;;;;;21.68;42.01;99102.94;2617779;54;19954;-67
2022/07/31 00:44:47;;;;;;;;;;;;;;;21.56;41.91;99106.88;2618139;54;19939;-69
2022/07/31 00:47:17;;;;;;;;;;;;;;;21.56;42.43;99101.50;2617796;39;20330;-68
2022/07/31 00:49:55;;;;;;;;;;;;;;;21.58;41.77;99104.75;2618321;54;20457;-67
2022/07/31 00:52:24;;;;;;;;;;;;;;;21.62;41.99;99105.84;2618236;54;19946;-70
2022/07/31 00:54:54;;;;;;;;;;;;;;;21.61;42.29;99098.84;2617662;54;19939;-68
2022/07/31 00:57:23;;;;;;;;;;;;;;;21.60;41.85;99098.03;2617670;54;19938;-68
2022/07/31 00:59:52;;;;;;;;;;;;;;;21.64;42.14;99098.34;2617610;54;19947;-66
2022/07/31 01:02:22;;;;;;;;;;;;;;;21.58;41.80;99096.66;2617467;47;19969;-68
2022/07/31 01:04:54;;;;;;;;;;;;;;;21.52;42.02;99099.31;2618395;54;19965;-68
2022/07/31 01:07:24;;;;;;;;;;;;;;;21.46;42.69;99103.03;2617379;54;20030;-67
2022/07/31 01:09:55;;;;;;;;;;;;;;;21.29;42.47;99107.69;2617598;54;19939;-69
2022/07/31 01:12:28;;;;;;;;;;;;;;;21.18;42.97;99108.66;2617776;54;20022;-68
2022/07/31 01:15:00;;;;;;;;;;;;;;;21.08;43.15;99105.88;2618091;39;20001;-67
2022/07/31 01:17:31;;;;;;;;;;;;;;;20.98;43.38;99104.72;2617722;54;19947;-67
2022/07/31 01:20:04;;;;;;;;;;;;;;;20.90;44.00;99102.50;2617408;54;20492;-67
2022/07/31 01:22:44;;;;;;;;;;;;;;;20.93;43.79;99101.97;2617443;54;19951;-67
2022/07/31 01:25:18;;;;;;;;;;;;;;;20.88;44.10;99095.72;2617410;47;19946;-68
2022/07/31 01:28:06;;;;;;;;;;;;;;;20.72;44.44;99092.06;2617099;54;19938;-69
2022/07/31 01:30:41;;;;;;;;;;;;;;;20.61;44.21;99087.63;2617407;54;20177;-67
2022/07/31 01:33:12;;;;;;;;;;;;;;;20.55;44.54;99088.66;2617437;54;19939;-69
2022/07/31 01:35:43;;;;;;;;;;;;;;;20.50;44.80;99087.53;2617291;47;19958;-68
2022/07/31 01:38:15;;;;;;;;;;;;;;;20.45;44.62;99090.13;2617211;47;19961;-68
2022/07/31 01:40:46;;;;;;;;;;;;;;;20.46;44.63;99086.38;2617506;47;19938;-68
2022/07/31 01:43:17;;;;;;;;;;;;;;;20.48;44.77;99083.41;2617381;47;19946;-68
2022/07/31 01:45:52;;;;;;;;;;;;;;;20.45;44.28;99086.59;2617841;39;20314;-66
2022/07/31 01:48:22;;;;;;;;;;;;;;;20.40;44.62;99083.84;2616701;54;19958;-67
2022/07/31 01:50:54;;;;;;;;;;;;;;;20.36;44.61;99082.72;2617580;54;19953;-66
2022/07/31 01:53:25;;;;;;;;;;;;;;;20.28;45.09;99082.09;2617502;54;19938;-67
2022/07/31 01:55:56;;;;;;;;;;;;;;;20.24;44.73;99091.72;2617481;54;19950;-68
2022/07/31 01:58:36;;;;;;;;;;;;;;;20.20;45.30;99087.91;2617935;54;19950;-67
2022/07/31 02:01:14;;;;;;;;;;;;;;;20.16;45.18;99086.78;2618788;54;19947;-67
2022/07/31 02:03:45;;;;;;;;;;;;;;;20.21;45.32;99089.53;2623119;54;19939;-68
2022/07/31 02:06:20;;;;;;;;;;;;;;;20.18;44.91;99081.97;2623143;54;20436;-70
2022/07/31 02:08:51;;;;;;;;;;;;;;;20.13;45.42;99091.84;2622966;47;19949;-70
2022/07/31 02:11:21;;;;;;;;;;;;;;;20.11;45.57;99085.91;2622380;54;19946;-68
2022/07/31 02:13:52;;;;;;;;;;;;;;;20.12;45.54;99074.91;2622543;54;20429;-68
2022/07/31 02:16:26;;;;;;;;;;;;;;;20.09;45.37;99069.25;2619006;54;19954;-68
2022/07/31 02:19:05;;;;;;;;;;;;;;;20.18;45.47;99070.44;2617382;47;19953;-68
2022/07/31 02:21:36;;;;;;;;;;;;;;;20.14;45.64;99077.34;2618054;54;19969;-68
2022/07/31 02:24:06;;;;;;;;;;;;;;;20.14;45.61;99072.00;2617307;47;20436;-68
2022/07/31 02:26:36;;;;;;;;;;;;;;;20.15;45.40;99076.28;2617371;39;20346;-68
2022/07/31 02:29:08;;;;;;;;;;;;;;;20.11;45.49;99073.28;2617735;39;20334;-68
2022/07/31 02:31:54;;;;;;;;;;;;;;;20.10;45.45;99071.66;2617146;54;20450;-68
2022/07/31 02:34:32;;;;;;;;;;;;;;;20.09;45.60;99070.06;2617259;54;20465;-69
2022/07/31 02:37:02;;;;;;;;;;;;;;;20.08;45.80;99070.28;2617243;54;19954;-70
2022/07/31 02:39:33;;;;;;;;;;;;;;;20.01;45.72;99067.81;2617162;54;19954;-67
2022/07/31 02:42:04;;;;;;;;;;;;;;;20.03;45.58;99058.41;2617203;54;20037;-70
2022/07/31 02:44:35;;;;;;;;;;;;;;;20.07;46.07;99063.31;2617355;47;19966;-68
2022/07/31 02:47:07;;;;;;;;;;;;;;;20.08;45.78;99068.41;2616945;54;19946;-68
2022/07/31 02:49:37;;;;;;;;;;;;;;;20.04;45.44;99062.75;2617171;47;19939;-68
2022/07/31 02:52:07;;;;;;;;;;;;;;;20.07;45.82;99061.44;2617364;54;19949;-69
2022/07/31 02:54:39;;;;;;;;;;;;;;;20.09;46.14;99055.84;2617636;47;20070;-67
2022/07/31 02:57:09;;;;;;;;;;;;;;;20.21;45.95;99059.22;2617210;46;19958;-70
2022/07/31 02:59:39;;;;;;;;;;;;;;;20.21;45.52;99056.53;2618237;54;19950;-67
2022/07/31 03:02:11;;;;;;;;;;;;;;;20.06;46.58;99059.81;2618328;54;19947;-67
2022/07/31 03:04:44;;;;;;;;;;;;;;;20.03;46.56;99061.09;2618159;51;19939;-67
2022/07/31 03:07:13;;;;;;;;;;;;;;;20.09;46.68;99055.84;2617575;47;19953;-67
2022/07/31 03:09:43;;;;;;;;;;;;;;;20.13;46.72;99057.75;2618141;54;20045;-67
2022/07/31 03:12:31;;;;;;;;;;;;;;;20.18;46.28;99060.50;2619132;39;20348;-68
2022/07/31 03:15:01;;;;;;;;;;;;;;;20.22;46.27;99055.47;2618031;54;20433;-68
2022/07/31 03:17:34;;;;;;;;;;;;;;;20.22;46.57;99061.63;2617765;54;19947;-68
2022/07/31 03:20:12;;;;;;;;;;;;;;;20.18;46.57;99052.47;2618122;54;19943;-68
2022/07/31 03:22:42;;;;;;;;;;;;;;;20.08;46.29;99068.41;2618394;47;20445;-67
2022/07/31 03:25:12;;;;;;;;;;;;;;;20.04;46.91;99059.22;2618470;54;19973;-69
2022/07/31 03:27:50;;;;;;;;;;;;;;;20.13;46.58;99056.97;2617909;54;19947;-68
2022/07/31 03:30:25;;;;;;;;;;;;;;;20.04;47.27;99051.19;2619096;47;19989;-68
2022/07/31 03:33:02;;;;;;;;;;;;;;;20.07;46.92;99052.56;2626499;39;20353;-69
2022/07/31 03:35:33;;;;;;;;;;;;;;;20.07;46.82;99053.38;2624589;54;19953;-67
2022/07/31 03:38:12;;;;;;;;;;;;;;;20.13;47.34;99055.09;2622851;54;19966;-67
2022/07/31 03:41:04;;;;;;;;;;;;;;;20.05;47.23;99044.78;2621015;47;19954;-68
2022/07/31 03:43:34;;;;;;;;;;;;;;;20.05;47.04;99047.47;2621859;54;19946;-67
2022/07/31 03:46:18;;;;;;;;;;;;;;;20.06;47.39;99045.59;2621512;47;19950;-68
2022/07/31 03:48:51;;;;;;;;;;;;;;;20.14;46.99;99051.34;2621361;54;20029;-68
2022/07/31 03:51:22;;;;;;;;;;;;;;;20.24;47.00;99048.75;2619622;54;19954;-68
2022/07/31 03:53:52;;;;;;;;;;;;;;;20.21;46.75;99057.34;2619789;54;19946;-68
2022/07/31 03:56:58;;;;;;;;;;;;;;;20.24;47.13;99056.00;2619200;54;19943;-67
2022/07/31 03:59:29;;;;;;;;;;;;;;;20.19;46.76;99055.94;2619430;54;19958;-68
2022/07/31 04:02:15;;;;;;;;;;;;;;;20.06;47.21;99059.81;2589073;54;19950;-67
2022/07/31 04:04:53;;;;;;;;;;;;;;;20.07;47.67;99061.44;2617660;54;19955;-68
2022/07/31 04:07:23;;;;;;;;;;;;;;;20.14;47.54;99059.38;2617630;54;19943;-68
2022/07/31 04:09:52;;;;;;;;;;;;;;;20.22;47.06;99056.25;2618217;54;19958;-67
2022/07/31 04:12:22;;;;;;;;;;;;;;;20.10;46.95;99055.56;2617587;54;19946;-67
2022/07/31 04:14:52;;;;;;;;;;;;;;;20.07;46.97;99056.06;2616976;39;20334;-66
2022/07/31 04:17:21;;;;;;;;;;;;;;;20.06;47.43;99048.25;2618390;47;19954;-67
2022/07/31 04:19:53;;;;;;;;;;;;;;;20.12;47.41;99049.94;2619700;54;19943;-67
2022/07/31 04:22:22;;;;;;;;;;;;;;;20.02;47.43;99042.59;2619027;47;19958;-67
2022/07/31 04:24:52;;;;;;;;;;;;;;;19.93;47.58;99055.63;2618568;54;19939;-67
2022/07/31 04:27:40;;;;;;;;;;;;;;;19.80;48.06;99053.28;2620572;54;19956;-67
2022/07/31 04:30:16;;;;;;;;;;;;;;;19.82;47.94;99058.41;2619148;54;20452;-67
2022/07/31 04:32:46;;;;;;;;;;;;;;;19.90;47.63;99060.66;2618849;47;20571;-67
2022/07/31 04:35:22;;;;;;;;;;;;;;;20.00;47.55;99050.88;2619032;47;19938;-68
2022/07/31 04:37:52;;;;;;;;;;;;;;;20.01;47.60;99052.50;2619922;54;19949;-67
2022/07/31 04:40:25;;;;;;;;;;;;;;;19.94;47.61;99053.75;2619078;54;19943;-67
2022/07/31 04:42:55;;;;;;;;;;;;;;;19.89;47.89;99051.00;2618808;47;19939;-67
2022/07/31 04:45:24;;;;;;;;;;;;;;;19.92;47.94;99056.69;2619535;54;20433;-67
2022/07/31 04:47:54;;;;;;;;;;;;;;;20.04;47.84;99057.38;2618674;54;19938;-67
2022/07/31 04:50:26;;;;;;;;;;;;;;;20.21;47.94;99064.56;2618888;54;19951;-67
2022/07/31 04:53:00;;;;;;;;;;;;;;;20.28;47.73;99063.31;2619342;54;19947;-67
2022/07/31 04:55:35;;;;;;;;;;;;;;;20.26;47.70;99057.38;2619047;39;20341;-67
2022/07/31 04:58:04;;;;;;;;;;;;;;;20.29;48.04;99061.47;2618077;54;19953;-67
2022/07/31 05:00:33;;;;;;;;;;;;;;;20.36;47.86;99072.00;2619026;39;20213;-67
2022/07/31 05:03:04;;;;;;;;;;;;;;;20.42;47.79;99065.63;2618604;54;20422;-67
2022/07/31 05:05:36;;;;;;;;;;;;;;;20.46;47.63;99069.44;2618630;54;19953;-67
2022/07/31 05:08:06;;;;;;;;;;;;;;;20.43;47.48;99061.88;2618761;39;20337;-66
2022/07/31 05:13:25;;;;;;;;;;;;;;;20.41;47.69;99070.19;2618700;47;19945;-68
2022/07/31 05:15:55;;;;;;;;;;;;;;;20.46;47.58;99070.25;2618594;54;19946;-67
2022/07/31 05:18:25;;;;;;;;;;;;;;;20.57;47.24;99062.34;2618646;54;19950;-67
2022/07/31 05:21:16;;;;;;;;;;;;;;;20.54;47.15;99066.34;2619184;54;20461;-67
2022/07/31 05:24:03;;;;;;;;;;;;;;;20.60;47.29;99078.75;2618629;47;19946;-67
2022/07/31 05:26:44;;;;;;;;;;;;;;;20.63;47.02;99067.53;2618491;47;19998;-66
2022/07/31 05:29:14;;;;;;;;;;;;;;;20.55;47.04;99070.66;2619526;54;19938;-67
2022/07/31 05:31:44;;;;;;;;;;;;;;;20.57;47.05;99073.06;2618712;54;19947;-66
2022/07/31 05:34:30;;;;;;;;;;;;;;;20.60;47.49;99070.69;2618464;54;20066;-66
2022/07/31 05:37:03;;;;;;;;;;;;;;;20.61;46.65;99063.44;2618406;54;19967;-66
2022/07/31 05:39:34;;;;;;;;;;;;;;;20.58;46.73;99056.72;2618757;54;19942;-66
2022/07/31 05:42:22;;;;;;;;;;;;;;;20.61;46.44;99052.72;2619499;54;19973;-66
2022/07/31 05:45:00;;;;;;;;;;;;;;;20.64;46.42;99058.41;2619845;54;19942;-66
2022/07/31 05:47:30;;;;;;;;;;;;;;;20.77;46.18;99059.88;2619463;39;20380;-65
2022/07/31 05:50:09;;;;;;;;;;;;;;;20.91;46.13;99054.94;2619758;39;20343;-66
2022/07/31 05:52:41;;;;;;;;;;;;;;;20.96;45.69;99055.78;2619752;47;20464;-66
2022/07/31 05:55:22;;;;;;;;;;;;;;;20.93;45.26;99050.09;2618978;54;20058;-67
2022/07/31 05:58:13;;;;;;;;;;;;;;;20.96;45.34;99061.16;2618734;39;20327;-67
2022/07/31 06:00:46;;;;;;;;;;;;;;;20.97;45.53;99059.28;2619159;54;19946;-67
2022/07/31 06:03:15;;;;;;;;;;;;;;;20.96;45.47;99054.97;2619596;31;20410;-67
2022/07/31 06:05:54;;;;;;;;;;;;;;;20.94;45.49;99051.72;2620482;31;20470;-67
2022/07/31 06:08:27;;;;;;;;;;;;;;;20.95;45.35;99056.03;2618753;54;19946;-66
2022/07/31 06:10:58;;;;;;;;;;;;;;;21.05;45.22;99063.38;2618833;47;19981;-67
2022/07/31 06:13:29;;;;;;;;;;;;;;;21.14;45.23;99067.22;2618473;54;19946;-67
2022/07/31 06:16:12;;;;;;;;;;;;;;;21.23;45.11;99063.81;2618947;47;19947;-67
2022/07/31 06:18:43;;;;;;;;;;;;;;;21.32;45.08;99064.19;2618928;47;19947;-67
2022/07/31 06:21:12;;;;;;;;;;;;;;;21.49;45.22;99064.06;2619251;39;20624;-67
2022/07/31 06:23:43;;;;;;;;;;;;;;;21.66;44.64;99061.22;2619556;39;20334;-66
2022/07/31 06:26:39;;;;;;;;;;;;;;;21.79;44.37;99059.97;2619494;54;19950;-66
2022/07/31 06:29:10;;;;;;;;;;;;;;;21.92;43.95;99068.41;2619874;54;19994;-66
2022/07/31 06:31:39;;;;;;;;;;;;;;;21.96;44.23;99066.81;2618967;54;19939;-67
2022/07/31 06:34:10;;;;;;;;;;;;;;;22.07;43.65;99070.34;2618286;47;19934;-67
2022/07/31 06:36:42;;;;;;;;;;;;;;;22.26;43.54;99073.44;2619228;54;19943;-65
2022/07/31 06:39:18;;;;;;;;;;;;;;;22.54;43.04;99074.13;2619607;54;20018;-66
2022/07/31 06:42:24;;;;;;;;;;;;;;;22.81;42.52;99069.31;2619731;54;20009;-67
2022/07/31 06:45:23;;;;;;;;;;;;;;;23.09;42.39;99065.34;2619686;47;19965;-66
2022/07/31 06:48:41;;;;;;;;;;;;;;;23.31;41.50;99075.91;2618611;54;20087;-67
2022/07/31 06:51:14;;;;;;;;;;;;;;;23.38;41.32;99064.84;2619499;47;19950;-66
2022/07/31 06:53:58;;;;;;;;;;;;;;;23.39;41.49;99063.75;2619350;47;19946;-66
2022/07/31 06:56:31;;;;;;;;;;;;;;;23.42;41.10;99069.41;2619645;39;20438;-67
2022/07/31 06:59:00;;;;;;;;;;;;;;;23.40;40.89;99068.09;2619268;54;20465;-66
2022/07/31 07:01:30;;;;;;;;;;;;;;;23.23;41.30;99069.16;2619730;54;19974;-66
2022/07/31 07:03:59;;;;;;;;;;;;;;;23.24;41.54;99070.78;2619195;54;19950;-66
2022/07/31 07:06:29;;;;;;;;;;;;;;;23.33;41.45;99072.94;2618795;54;20010;-65
2022/07/31 07:08:59;;;;;;;;;;;;;;;23.35;41.60;99058.13;2618812;47;19958;-67
2022/07/31 07:11:34;;;;;;;;;;;;;;;23.40;41.48;99062.69;2618908;54;20010;-66
2022/07/31 07:14:03;;;;;;;;;;;;;;;23.40;41.44;99060.00;2619139;54;19958;-66
2022/07/31 07:16:33;;;;;;;;;;;;;;;23.39;41.47;99056.50;2619083;54;19945;-66
2022/07/31 07:19:02;;;;;;;;;;;;;;;23.39;41.04;99063.75;2619664;54;19947;-67
2022/07/31 07:21:31;;;;;;;;;;;;;;;23.46;40.81;99059.69;2619120;54;19939;-66
2022/07/31 07:24:01;;;;;;;;;;;;;;;23.58;40.98;99045.13;2618707;54;19946;-67
2022/07/31 07:26:53;;;;;;;;;;;;;;;23.79;40.67;99048.63;2619289;54;19950;-67
2022/07/31 07:29:23;;;;;;;;;;;;;;;23.86;40.32;99046.47;2619042;54;19946;-66
2022/07/31 07:31:53;;;;;;;;;;;;;;;23.97;40.09;99043.47;2619753;46;19969;-66
2022/07/31 07:34:23;;;;;;;;;;;;;;;24.15;39.41;99042.06;2618903;54;19942;-66
2022/07/31 07:36:52;;;;;;;;;;;;;;;24.26;39.08;99048.25;2619020;47;20035;-67
2022/07/31 07:39:25;;;;;;;;;;;;;;;24.43;38.49;99034.41;2618978;51;19951;-67
2022/07/31 07:41:57;;;;;;;;;;;;;;;24.44;38.26;99034.13;2619167;47;20066;-67
2022/07/31 07:44:28;;;;;;;;;;;;;;;24.56;37.40;99038.41;2618865;47;19973;-68
2022/07/31 07:46:57;;;;;;;;;;;;;;;24.68;37.26;99042.38;2619161;54;20069;-67
2022/07/31 07:49:29;;;;;;;;;;;;;;;24.68;37.57;99034.28;2619086;54;19954;-67
2022/07/31 07:52:18;;;;;;;;;;;;;;;24.78;37.34;99035.28;2619503;54;19949;-67
2022/07/31 07:55:16;;;;;;;;;;;;;;;24.76;36.92;99030.16;2619332;46;19953;-67
2022/07/31 07:58:09;;;;;;;;;;;;;;;24.76;36.56;99023.97;2619202;39;20342;-66
2022/07/31 08:00:59;;;;;;;;;;;;;;;24.98;36.69;99029.75;2619461;54;19965;-67
2022/07/31 08:03:28;;;;;;;;;;;;;;;25.19;36.62;99023.16;2618935;51;19935;-67
2022/07/31 08:06:18;;;;;;;;;;;;;;;25.41;35.96;99013.75;2618083;51;20042;-67
2022/07/31 08:08:47;;;;;;;;;;;;;;;25.75;35.84;99004.75;2618528;54;19939;-68
2022/07/31 08:11:45;;;;;;;;;;;;;;;25.96;35.71;99005.34;2619643;39;20431;-67
2022/07/31 08:14:26;;;;;;;;;;;;;;;26.16;35.07;99005.91;2618628;54;19943;-67
2022/07/31 08:17:18;;;;;;;;;;;;;;;26.43;34.96;98996.38;2618742;54;19974;-67
2022/07/31 08:19:48;;;;;;;;;;;;;;;26.48;34.65;99000.94;2618760;54;20047;-67
2022/07/31 08:22:20;;;;;;;;;;;;;;;26.51;34.60;99001.16;2618567;54;19953;-66
2022/07/31 08:24:49;;;;;;;;;;;;;;;26.58;34.39;98996.19;2618973;54;19951;-66
2022/07/31 08:27:29;;;;;;;;;;;;;;;26.57;34.33;98994.56;2618516;50;20438;-67
2022/07/31 08:30:12;;;;;;;;;;;;;;;26.61;33.92;98990.16;2618434;47;19939;-66
2022/07/31 08:32:41;;;;;;;;;;;;;;;26.82;34.05;98990.69;2618664;54;19942;-67
2022/07/31 08:35:11;;;;;;;;;;;;;;;26.95;34.16;98988.34;2619159;54;19994;-68
2022/07/31 08:37:42;;;;;;;;;;;;;;;27.16;32.94;98992.34;2619825;39;20617;-66
2022/07/31 08:40:31;;;;;;;;;;;;;;;27.26;33.20;98977.78;2619040;54;20457;-66
2022/07/31 08:43:12;;;;;;;;;;;;;;;27.44;32.90;98968.00;2619200;47;19943;-65
2022/07/31 08:46:06;;;;;;;;;;;;;;;27.57;32.66;98981.56;2619152;54;19964;-66
2022/07/31 08:48:41;;;;;;;;;;;;;;;27.77;31.42;98969.53;2619670;47;19950;-66
2022/07/31 08:51:12;;;;;;;;;;;;;;;27.95;31.59;98975.16;2619854;54;19946;-66
2022/07/31 08:54:00;;;;;;;;;;;;;;;28.05;30.26;98980.41;2620526;54;20033;-66
2022/07/31 08:56:30;;;;;;;;;;;;;;;28.11;31.23;98979.19;2619278;54;19939;-66
2022/07/31 08:59:02;;;;;;;;;;;;;;;28.05;30.90;98970.34;2620013;47;20461;-66
2022/07/31 09:01:34;;;;;;;;;;;;;;;28.00;31.01;98975.06;2620162;53;19955;-65
2022/07/31 09:04:04;;;;;;;;;;;;;;;27.86;31.14;98966.94;2619774;47;19951;-65
2022/07/31 09:06:33;;;;;;;;;;;;;;;27.84;30.88;98974.56;2620101;54;19947;-66
2022/07/31 09:09:06;;;;;;;;;;;;;;;27.75;30.71;98966.31;2622439;54;20442;-67
2022/07/31 09:11:49;;;;;;;;;;;;;;;27.76;30.95;98967.94;2622852;54;19945;-66
2022/07/31 09:14:39;;;;;;;;;;;;;;;27.89;31.06;98967.13;2622157;54;20062;-68
2022/07/31 09:17:14;;;;;;;;;;;;;;;27.86;31.10;98975.06;2622903;54;19939;-66
2022/07/31 09:19:46;;;;;;;;;;;;;;;27.78;31.10;98965.72;2623619;54;19946;-66
2022/07/31 09:22:30;;;;;;;;;;;;;;;27.88;31.65;98965.53;2623373;47;19954;-68
2022/07/31 09:25:10;;;;;;;;;;;;;;;27.93;31.51;98963.81;2623018;54;20030;-67
2022/07/31 09:27:41;;;;;;;;;;;;;;;28.08;31.51;98952.59;2622933;47;19953;-68
2022/07/31 09:30:11;;;;;;;;;;;;;;;28.09;31.49;98962.41;2623468;54;19938;-65
2022/07/31 09:32:56;;;;;;;;;;;;;;;28.07;31.40;98951.00;2623632;54;19950;-66
2022/07/31 09:35:49;;;;;;;;;;;;;;;28.15;31.06;98951.09;2623290;47;19950;-66
2022/07/31 09:38:19;;;;;;;;;;;;;;;28.31;30.99;98948.84;2622825;47;19958;-66
2022/07/31 09:41:11;;;;;;;;;;;;;;;28.38;31.11;98951.19;2623312;54;19974;-68
2022/07/31 09:44:07;;;;;;;;;;;;;;;28.53;30.51;98937.22;2622972;54;19973;-69
2022/07/31 09:46:43;;;;;;;;;;;;;;;28.70;30.67;98943.91;2622396;47;20458;-67
2022/07/31 09:49:15;;;;;;;;;;;;;;;28.94;30.73;98938.16;2623041;54;19954;-68
2022/07/31 09:51:48;;;;;;;;;;;;;;;29.07;30.09;98921.81;2624052;54;19938;-65
2022/07/31 09:54:22;;;;;;;;;;;;;;;28.91;29.60;98939.59;2623754;39;20361;-67
2022/07/31 09:57:11;;;;;;;;;;;;;;;28.77;29.94;98927.97;2622693;54;19943;-65
2022/07/31 09:59:46;;;;;;;;;;;;;;;28.82;29.73;98923.22;2618876;47;19943;-67
2022/07/31 10:02:17;;;;;;;;;;;;;;;28.88;29.67;98932.84;2618403;54;20506;-66
2022/07/31 10:04:52;;;;;;;;;;;;;;;28.89;29.71;98920.84;2618677;54;19949;-65
2022/07/31 10:07:25;;;;;;;;;;;;;;;28.92;29.17;98926.78;2618623;47;19938;-66
2022/07/31 10:10:11;;;;;;;;;;;;;;;28.90;28.75;98921.66;2617479;54;19938;-66
2022/07/31 10:12:55;;;;;;;;;;;;;;;29.00;28.92;98929.59;2618727;54;20049;-66
2022/07/31 10:15:27;;;;;;;;;;;;;;;28.82;29.39;98922.41;2618738;39;20342;-67
2022/07/31 10:18:17;;;;;;;;;;;;;;;28.82;29.54;98930.56;2618521;54;19957;-67
2022/07/31 10:21:27;;;;;;;;;;;;;;;28.87;29.57;98917.66;2618935;54;19947;-67
2022/07/31 10:24:11;;;;;;;;;;;;;;;29.01;29.49;98912.16;2618637;54;19978;-66
2022/07/31 10:26:41;;;;;;;;;;;;;;;29.10;29.84;98915.72;2618129;47;19939;-67
2022/07/31 10:29:33;;;;;;;;;;;;;;;28.98;29.52;98907.31;2618188;47;20050;-66
2022/07/31 10:32:06;;;;;;;;;;;;;;;28.85;29.44;98917.13;2618640;47;19993;-65
2022/07/31 10:34:40;;;;;;;;;;;;;;;28.77;29.69;98923.31;2620397;47;19942;-67
2022/07/31 10:37:14;;;;;;;;;;;;;;;28.56;30.21;98909.41;2622003;54;19950;-66
2022/07/31 10:40:08;;;;;;;;;;;;;;;28.64;30.40;98902.44;2621688;54;19949;-66
2022/07/31 10:42:45;;;;;;;;;;;;;;;28.83;29.92;98902.25;2619121;54;19951;-66
2022/07/31 10:45:16;;;;;;;;;;;;;;;29.04;29.98;98902.56;2621139;47;20458;-67
2022/07/31 10:47:57;;;;;;;;;;;;;;;29.30;29.56;98892.59;2620569;54;19938;-67
2022/07/31 10:50:45;;;;;;;;;;;;;;;29.43;28.87;98884.63;2619741;39;20329;-67
2022/07/31 10:53:28;;;;;;;;;;;;;;;29.68;28.78;98873.06;2618393;47;20430;-67
2022/07/31 10:56:42;;;;;;;;;;;;;;;29.73;28.57;98877.56;2619668;39;20331;-67
2022/07/31 10:59:31;;;;;;;;;;;;;;;29.77;29.17;98882.06;2619320;54;19942;-67
2022/07/31 11:02:28;;;;;;;;;;;;;;;29.82;28.27;98871.00;2620086;54;19957;-67
2022/07/31 11:05:12;;;;;;;;;;;;;;;29.83;28.62;98871.81;2621056;54;19993;-67
2022/07/31 11:08:20;;;;;;;;;;;;;;;29.89;28.90;98870.53;2622151;54;19994;-67
2022/07/31 11:10:59;;;;;;;;;;;;;;;30.07;27.79;98871.34;2623431;54;19965;-66
2022/07/31 11:13:54;;;;;;;;;;;;;;;30.05;27.13;98868.16;2624438;39;20446;-66
2022/07/31 11:16:51;;;;;;;;;;;;;;;30.02;27.68;98869.59;2622572;54;19973;-66
2022/07/31 11:19:39;;;;;;;;;;;;;;;30.06;28.02;98872.47;2622171;47;19962;-67
2022/07/31 11:22:13;;;;;;;;;;;;;;;30.17;27.44;98870.25;2622869;54;19958;-66
2022/07/31 11:25:01;;;;;;;;;;;;;;;30.16;27.31;98861.28;2622496;54;19945;-67
2022/07/31 11:27:33;;;;;;;;;;;;;;;30.29;27.31;98868.53;2623225;54;19945;-66
2022/07/31 11:30:07;;;;;;;;;;;;;;;30.34;26.82;98864.81;2623710;54;19962;-66
2022/07/31 11:32:41;;;;;;;;;;;;;;;30.32;27.04;98865.13;2623275;54;20021;-67
2022/07/31 11:35:11;;;;;;;;;;;;;;;30.19;27.28;98855.19;2623046;54;19935;-66
2022/07/31 11:37:40;;;;;;;;;;;;;;;30.09;27.30;98855.50;2623539;54;19946;-66
2022/07/31 11:40:15;;;;;;;;;;;;;;;30.09;27.18;98852.78;2622643;54;19942;-65
2022/07/31 11:42:48;;;;;;;;;;;;;;;30.18;27.31;98844.63;2620827;54;19945;-65
2022/07/31 11:45:46;;;;;;;;;;;;;;;30.30;27.00;98834.66;2621373;54;20026;-65
2022/07/31 11:48:16;;;;;;;;;;;;;;;30.26;27.75;98836.44;2621569;39;20414;-66
2022/07/31 11:50:47;;;;;;;;;;;;;;;30.39;26.97;98822.94;2621375;39;20321;-67
2022/07/31 11:53:17;;;;;;;;;;;;;;;30.41;26.83;98831.59;2618922;54;19943;-66
2022/07/31 11:55:51;;;;;;;;;;;;;;;30.44;26.53;98820.84;2619805;54;19946;-66
2022/07/31 11:58:24;;;;;;;;;;;;;;;30.61;26.73;98814.56;2619275;54;19951;-66
2022/07/31 12:00:54;;;;;;;;;;;;;;;30.74;26.58;98805.41;2619227;54;19938;-65
2022/07/31 12:03:25;;;;;;;;;;;;;;;30.46;27.03;98809.63;2619121;54;19935;-66
2022/07/31 12:05:55;;;;;;;;;;;;;;;30.50;26.52;98797.75;2619866;54;19942;-66
2022/07/31 12:08:26;;;;;;;;;;;;;;;30.29;27.02;98804.97;2619383;54;19953;-67
2022/07/31 12:10:58;;;;;;;;;;;;;;;30.30;27.06;98812.06;2619695;54;19954;-65
2022/07/31 12:13:31;;;;;;;;;;;;;;;30.20;27.24;98805.00;2619667;54;19946;-66
2022/07/31 12:16:02;;;;;;;;;;;;;;;30.05;26.44;98802.75;2620434;54;19946;-67
2022/07/31 12:18:32;;;;;;;;;;;;;;;29.92;26.23;98803.69;2622767;47;19951;-66
2022/07/31 12:21:02;;;;;;;;;;;;;;;29.91;26.81;98799.38;2622696;54;19951;-65
2022/07/31 12:23:40;;;;;;;;;;;;;;;29.90;26.92;98789.59;2622459;47;19953;-66
2022/07/31 12:26:12;;;;;;;;;;;;;;;29.97;26.98;98798.09;2622334;39;20378;-66
2022/07/31 12:28:44;;;;;;;;;;;;;;;30.00;26.13;98794.72;2624862;39;20346;-66
2022/07/31 12:31:13;;;;;;;;;;;;;;;30.08;26.24;98789.25;2622127;54;19951;-67
2022/07/31 12:33:44;;;;;;;;;;;;;;;30.31;25.60;98778.22;2619934;31;20402;-65
2022/07/31 12:36:14;;;;;;;;;;;;;;;30.65;25.54;98790.94;2619119;54;19967;-65
2022/07/31 12:38:44;;;;;;;;;;;;;;;30.79;25.46;98771.69;2618884;47;19951;-67
2022/07/31 12:41:17;;;;;;;;;;;;;;;31.00;25.43;98779.94;2618950;54;19938;-65
2022/07/31 12:43:49;;;;;;;;;;;;;;;30.82;25.27;98771.84;2618998;54;19986;-66
2022/07/31 12:46:22;;;;;;;;;;;;;;;30.69;25.34;98769.28;2618688;54;19943;-66
2022/07/31 12:48:51;;;;;;;;;;;;;;;30.82;25.74;98763.66;2618446;47;20494;-67
2022/07/31 12:51:21;;;;;;;;;;;;;;;30.94;25.42;98762.94;2618902;54;19939;-66
2022/07/31 12:54:11;;;;;;;;;;;;;;;31.03;25.09;98762.94;2619326;54;19959;-66
2022/07/31 12:56:41;;;;;;;;;;;;;;;31.13;24.73;98756.28;2618968;54;19971;-65
2022/07/31 12:59:13;;;;;;;;;;;;;;;31.08;24.57;98757.28;2619158;54;19953;-66
2022/07/31 16:03:46;;;;;;;;;;;;;;;32.30;22.26;98670.47;2617696;54;19962;-65
2022/07/31 16:06:21;;;;;;;;;;;;;;;32.39;22.03;98667.66;2617841;54;19945;-65
2022/07/31 16:09:00;;;;;;;;;;;;;;;32.55;21.72;98659.59;2618925;54;19943;-67
2022/07/31 16:11:29;;;;;;;;;;;;;;;32.56;21.88;98672.13;2619498;54;19950;-64
2022/07/31 16:14:18;;;;;;;;;;;;;;;32.63;21.47;98669.63;2618991;54;19947;-67
2022/07/31 16:16:48;;;;;;;;;;;;;;;32.49;21.88;98669.16;2619893;39;20726;-67
2022/07/31 16:19:23;;;;;;;;;;;;;;;32.61;21.63;98665.63;2619633;54;19973;-67
2022/07/31 16:21:54;;;;;;;;;;;;;;;32.61;21.58;98657.41;2618708;54;19969;-67
2022/07/31 16:24:23;;;;;;;;;;;;;;;32.39;20.94;98661.41;2622680;54;19939;-67
2022/07/31 16:26:53;;;;;;;;;;;;;;;32.38;21.20;98666.03;2622756;54;19958;-67
2022/07/31 16:29:23;;;;;;;;;;;;;;;32.35;21.23;98666.72;2622032;54;20469;-68
2022/07/31 16:32:13;;;;;;;;;;;;;;;32.44;20.99;98661.97;2622390;54;19998;-67
2022/07/31 16:34:45;;;;;;;;;;;;;;;32.49;20.84;98659.00;2621814;54;19951;-67
2022/07/31 16:37:20;;;;;;;;;;;;;;;32.69;20.89;98654.56;2621665;54;19946;-67